x

Nantucket Sound (44020) Wave Buoy

4:50 - Mon 23rd Jan 2017 All times are EST. -5 hours from GMT.

  • Sig Wave height 5.6ft
  • Swell Direction
  • Peak Period 5s
  • Average Period 5s
  • Wind
    34mph, 40mph gusts
  • Sea Temp 43°f
  • Sea Pressure 1008.7mb
  • Nantucket Sound
  • Nantucket Sound

More Historic Weather Station data

Upgrade to MSW Pro to gain access to the past 30 days of data for over 8000 Wavebouys and Weather Stations around the globe.

Join Pro

Comparision Forecast

View Surf forecast
   
lun 01/23 4:50 5.5ft 5s 5s 34 40 mph 1008.7mb 43f -
3:50 5ft 5s 5s 31 40 mph 1009.8mb 44f -
2:50 5.5ft 5s 4s 31 38 mph 1010.1mb 44f -
1:50 4.5ft 5s 4s 31 38 mph 1010.7mb 44f -
12:50 5ft 5s 4s 31 38 mph 1011.8mb 44f -
11:50 5ft 5s 4s 31 38 mph 1012.2mb 43f -
10:50 5ft 5s 4s 34 38 mph 1013mb 43f -
9:50 5ft 5s 4s 31 38 mph 1014.2mb 42f -
7:50 5ft 4s 4s 29 36 mph 1013.2mb 42f -
6:50 4.5ft 5s 4s 25 31 mph 1013.4mb 42f -
5:50 4.5ft 5s 4s 29 36 mph 1012.4mb 43f -
4:50 4.5ft 5s 4s 29 36 mph 1012.1mb 43f -
3:50 4.5ft 4s 4s 27 31 mph 1012.7mb 43f -
2:50 4ft 5s 4s 27 34 mph 1012.5mb 42f -
1:50 4ft 5s 4s 27 34 mph 1012.6mb 42f -
12:50 4.5ft 5s 4s 27 34 mph 1011.8mb 42f -
dom 01/22 11:50 4ft 5s 4s 27 34 mph 1011.3mb 42f 43f
10:50 3.5ft 4s 4s 27 29 mph 1011.5mb 43f 43f
9:50 3.5ft 4s 4s 22 27 mph 1011.5mb 43f 44f
8:50 3.5ft 5s 4s 25 29 mph 1011mb 42f 44f
7:50 3ft 4s 4s 20 25 mph 1010.9mb 41f 44f
6:50 3ft 4s 4s 20 25 mph 1010.4mb 42f 44f
5:50 2ft 3s 4s 20 27 mph 1009.4mb 42f 44f
4:50 1.3ft 11s 4s 22 27 mph 1008.1mb 42f 45f
3:50 1ft 3s 4s 13 16 mph 1008.8mb 42f 44f
2:50 1ft 13s 4s 16 18 mph 1007.7mb 43f 45f
1:50 1ft 14s 5s 4 7 mph 1008.1mb 43f 45f
12:50 1ft 5s 5s 4
mph
1007.8mb 43f 44f
11:50 1ft 14s 5s 4
mph
1008.1mb 43f 43f
10:50 1ft 12s 5s 2 4 mph 1008.4mb 43f 42f
9:50 1ft 11s 5s 2 4 mph 1008.7mb 43f 42f
8:50 1.3ft 13s 5s  -  2 mph 1008.6mb 42f 40f
7:50 1.3ft 11s 5s 4
mph
1008.5mb 41f 40f
6:50 1.3ft 13s 5s 9 11 mph 1008.2mb 40f 39f
5:50 1ft 13s 5s 7 9 mph 1007.7mb 40f 40f
4:50 1ft 12s 5s 9
mph
1007mb 41f 40f
3:50 1ft 12s 4s 7 9 mph 1007.3mb 41f 40f
2:50 1ft 13s 4s 9
mph
1008mb 42f 40f
1:50 1ft 13s 4s 13
mph
1007.9mb 42f 40f
12:50 1ft 4s 4s 11 13 mph 1007.9mb 43f 40f
sáb 01/21 11:50 1.3ft 14s 4s 9 11 mph 1007.9mb 43f 41f
10:50 1.3ft 14s 4s 11
mph
1008.3mb 43f 41f
9:50 1.3ft 13s 4s 11
mph
1008.5mb 43f 41f
8:50 1.6ft 11s 4s 9 11 mph 1008.7mb 42f 41f
7:50 1.6ft 4s 4s 11 13 mph 1008.6mb 41f 41f
6:50 1.6ft 10s 4s 11 16 mph 1008.5mb 41f 40f
5:50 1.6ft 3s 3s 13 18 mph 1008.3mb 41f 41f
4:50 2ft 3s 3s 22 27 mph 1007.7mb 42f 41f
3:50 1.3ft 3s 3s 20 22 mph 1007.4mb 41f 41f
2:50 1.3ft 3s 3s 16 18 mph 1007.5mb 42f 42f
1:50 1.3ft 3s 3s 16 20 mph 1008mb 42f 42f
12:50 1ft 12s 4s 18 20 mph 1008.5mb 43f 42f
11:50 1ft 12s 5s 13 16 mph 1009.6mb 43f 42f
10:50 1.3ft 11s 5s 11 13 mph 1010.6mb 43f 42f
9:50 1.3ft 5s 4s 9 11 mph 1011.4mb 43f 43f
8:50 1.3ft 11s 5s 11 13 mph 1011.2mb 43f 42f
7:50 1.3ft 11s 5s 13 16 mph 1011.3mb 42f 42f
6:50 1.3ft 11s 5s 9 11 mph 1011.6mb 41f 42f
5:50 1.3ft 11s 5s 4 7 mph 1011.9mb 41f 41f
4:50 1ft 12s 6s 4
mph
1012.1mb 41f 41f
3:50 0.7ft  -  5s 4 7 mph 1012.6mb 41f 41f
2:50 0.7ft  -  5s 4 7 mph 1012.8mb 41f 41f
1:50 0.7ft  -  5s 7
mph
1013.4mb 42f 42f
12:50 1ft 11s 5s 7 9 mph 1013.5mb 43f 42f
vie 01/20 11:50 1ft 6s 5s 7 9 mph 1013.8mb 43f 42f
10:50 1ft 11s 5s 7 9 mph 1014.1mb 43f 42f
9:50 1ft 5s 5s 7
mph
1014.2mb 43f 42f
8:50 1.3ft 5s 5s 9
mph
1014.4mb 43f 42f
7:50 1.3ft 6s 5s 7
mph
1014.8mb 43f 42f
6:50 1.3ft 5s 4s 4
mph
1014.9mb 41f 41f
5:50 1.3ft 8s 5s  -  2 mph 1014.8mb 41f 40f
4:50 1.3ft 4s 5s 2 4 mph 1014.5mb 41f 40f
3:50 1ft 5s 5s 2 7 mph 1014.8mb 41f 40f
2:50 1ft 5s 5s 2
mph
1015.2mb 41f 41f
1:50 1ft 5s 5s 2 4 mph 1014.9mb 42f 42f
12:50 1ft 5s 5s 4 7 mph 1015.1mb 43f 42f
11:50 1ft 5s 5s 2 4 mph 1016.1mb 43f 42f
10:50 1ft 12s 5s 4
mph
1016.8mb 43f 42f
9:50 1.3ft 5s 5s 4 7 mph 1017.2mb 43f 41f
8:50 1.3ft 11s 5s 7
mph
1016.6mb 43f 40f
7:50 1.3ft 9s 4s 7 9 mph 1016.1mb 43f 39f
6:50 1.6ft 10s 4s 9
mph
1015.7mb 41f 38f
5:50 1.6ft 11s 4s 9 11 mph 1015.9mb 40f 39f
4:50 1.3ft 5s 5s 11 13 mph 1015.8mb 40f 39f
3:50 1ft 5s 5s 9 11 mph 1015.8mb 41f 40f
2:50 1ft 11s 4s 7 9 mph 1015.4mb 41f 40f
1:50 1ft 6s 4s 7 9 mph 1015.5mb 41f 41f
12:50 1ft 5s 3s 13 16 mph 1014.4mb 42f 42f
jue 01/19 11:50 1ft 11s 5s 13 16 mph 1015.4mb 43f 42f